sensor_id;sensor_type;location;lat;lon;timestamp;P1;durP1;ratioP1;P2;durP2;ratioP2
20118;SDS011;10220;42.716;23.306;2023-04-21T00:01:29;16.90;;;10.68;;
20118;SDS011;10220;42.716;23.306;2023-04-21T00:03:56;66.70;;;35.83;;
20118;SDS011;10220;42.716;23.306;2023-04-21T00:06:21;44.05;;;23.30;;
20118;SDS011;10220;42.716;23.306;2023-04-21T00:08:50;33.53;;;18.35;;
20118;SDS011;10220;42.716;23.306;2023-04-21T00:11:15;6.65;;;4.78;;
20118;SDS011;10220;42.716;23.306;2023-04-21T00:13:41;25.13;;;12.95;;
20118;SDS011;10220;42.716;23.306;2023-04-21T00:16:06;23.77;;;11.20;;
20118;SDS011;10220;42.716;23.306;2023-04-21T00:18:32;6.88;;;4.65;;
20118;SDS011;10220;42.716;23.306;2023-04-21T00:20:57;14.75;;;9.23;;
20118;SDS011;10220;42.716;23.306;2023-04-21T00:23:23;15.38;;;8.88;;
20118;SDS011;10220;42.716;23.306;2023-04-21T00:25:49;13.23;;;7.32;;
20118;SDS011;10220;42.716;23.306;2023-04-21T00:28:14;15.95;;;8.23;;
20118;SDS011;10220;42.716;23.306;2023-04-21T00:30:39;12.02;;;7.40;;
20118;SDS011;10220;42.716;23.306;2023-04-21T00:33:05;9.48;;;4.68;;
20118;SDS011;10220;42.716;23.306;2023-04-21T00:35:30;8.50;;;4.20;;
20118;SDS011;10220;42.716;23.306;2023-04-21T00:37:56;8.15;;;5.53;;
20118;SDS011;10220;42.716;23.306;2023-04-21T00:40:21;6.65;;;4.53;;
20118;SDS011;10220;42.716;23.306;2023-04-21T00:42:47;11.18;;;6.63;;
20118;SDS011;10220;42.716;23.306;2023-04-21T00:45:12;13.18;;;7.72;;
20118;SDS011;10220;42.716;23.306;2023-04-21T00:47:39;10.07;;;7.03;;
20118;SDS011;10220;42.716;23.306;2023-04-21T00:50:05;12.00;;;6.78;;
20118;SDS011;10220;42.716;23.306;2023-04-21T00:52:30;11.82;;;5.30;;
20118;SDS011;10220;42.716;23.306;2023-04-21T00:54:57;50.58;;;27.90;;
20118;SDS011;10220;42.716;23.306;2023-04-21T00:57:23;16.88;;;9.27;;
20118;SDS011;10220;42.716;23.306;2023-04-21T00:59:49;39.13;;;20.98;;
20118;SDS011;10220;42.716;23.306;2023-04-21T01:02:16;8.70;;;5.97;;
20118;SDS011;10220;42.716;23.306;2023-04-21T01:04:42;16.20;;;9.43;;
20118;SDS011;10220;42.716;23.306;2023-04-21T01:07:08;6.43;;;4.68;;
20118;SDS011;10220;42.716;23.306;2023-04-21T01:09:34;6.63;;;3.75;;
20118;SDS011;10220;42.716;23.306;2023-04-21T01:14:26;30.25;;;18.27;;
20118;SDS011;10220;42.716;23.306;2023-04-21T01:16:51;218.63;;;108.32;;
20118;SDS011;10220;42.716;23.306;2023-04-21T01:19:17;256.05;;;123.38;;
20118;SDS011;10220;42.716;23.306;2023-04-21T01:21:44;36.05;;;20.45;;
20118;SDS011;10220;42.716;23.306;2023-04-21T01:24:09;22.90;;;10.48;;
20118;SDS011;10220;42.716;23.306;2023-04-21T01:26:36;27.25;;;16.73;;
20118;SDS011;10220;42.716;23.306;2023-04-21T01:29:01;56.83;;;25.75;;
20118;SDS011;10220;42.716;23.306;2023-04-21T01:31:26;39.75;;;20.00;;
20118;SDS011;10220;42.716;23.306;2023-04-21T01:33:52;19.98;;;10.15;;
20118;SDS011;10220;42.716;23.306;2023-04-21T01:36:17;10.43;;;5.57;;
20118;SDS011;10220;42.716;23.306;2023-04-21T01:38:43;5.88;;;3.67;;
20118;SDS011;10220;42.716;23.306;2023-04-21T01:41:08;20.23;;;8.85;;
20118;SDS011;10220;42.716;23.306;2023-04-21T01:43:34;19.88;;;9.88;;
20118;SDS011;10220;42.716;23.306;2023-04-21T01:46:01;12.85;;;6.15;;
20118;SDS011;10220;42.716;23.306;2023-04-21T01:48:27;10.93;;;5.78;;
20118;SDS011;10220;42.716;23.306;2023-04-21T01:50:52;10.18;;;6.35;;
20118;SDS011;10220;42.716;23.306;2023-04-21T01:53:18;81.55;;;40.92;;
20118;SDS011;10220;42.716;23.306;2023-04-21T01:55:43;64.18;;;31.30;;
20118;SDS011;10220;42.716;23.306;2023-04-21T01:58:08;50.10;;;26.02;;
20118;SDS011;10220;42.716;23.306;2023-04-21T02:00:34;60.95;;;30.65;;
20118;SDS011;10220;42.716;23.306;2023-04-21T02:02:59;60.95;;;31.52;;
20118;SDS011;10220;42.716;23.306;2023-04-21T02:05:25;17.83;;;10.70;;
20118;SDS011;10220;42.716;23.306;2023-04-21T02:07:50;20.80;;;9.70;;
20118;SDS011;10220;42.716;23.306;2023-04-21T02:10:16;27.10;;;14.95;;
20118;SDS011;10220;42.716;23.306;2023-04-21T02:12:41;28.83;;;16.15;;
20118;SDS011;10220;42.716;23.306;2023-04-21T02:15:07;33.25;;;18.17;;
20118;SDS011;10220;42.716;23.306;2023-04-21T02:17:33;62.80;;;30.92;;
20118;SDS011;10220;42.716;23.306;2023-04-21T02:19:58;54.80;;;27.48;;
20118;SDS011;10220;42.716;23.306;2023-04-21T02:22:24;20.30;;;8.25;;
20118;SDS011;10220;42.716;23.306;2023-04-21T02:24:49;31.70;;;17.02;;
20118;SDS011;10220;42.716;23.306;2023-04-21T02:27:14;35.78;;;20.95;;
20118;SDS011;10220;42.716;23.306;2023-04-21T02:29:40;14.75;;;8.95;;
20118;SDS011;10220;42.716;23.306;2023-04-21T02:32:06;39.72;;;20.42;;
20118;SDS011;10220;42.716;23.306;2023-04-21T02:34:31;35.95;;;19.45;;
20118;SDS011;10220;42.716;23.306;2023-04-21T02:36:57;30.05;;;16.73;;
20118;SDS011;10220;42.716;23.306;2023-04-21T02:39:23;26.85;;;15.48;;
20118;SDS011;10220;42.716;23.306;2023-04-21T02:41:49;24.23;;;13.30;;
20118;SDS011;10220;42.716;23.306;2023-04-21T02:44:14;14.73;;;8.45;;
20118;SDS011;10220;42.716;23.306;2023-04-21T02:46:40;17.35;;;8.73;;
20118;SDS011;10220;42.716;23.306;2023-04-21T02:49:05;9.65;;;5.75;;
20118;SDS011;10220;42.716;23.306;2023-04-21T02:51:31;6.72;;;5.70;;
20118;SDS011;10220;42.716;23.306;2023-04-21T02:53:56;16.35;;;9.77;;
20118;SDS011;10220;42.716;23.306;2023-04-21T02:56:22;18.88;;;11.25;;
20118;SDS011;10220;42.716;23.306;2023-04-21T02:58:47;7.35;;;4.60;;
20118;SDS011;10220;42.716;23.306;2023-04-21T03:01:13;20.70;;;9.55;;
20118;SDS011;10220;42.716;23.306;2023-04-21T03:03:38;17.73;;;9.73;;
20118;SDS011;10220;42.716;23.306;2023-04-21T03:06:04;18.95;;;10.07;;
20118;SDS011;10220;42.716;23.306;2023-04-21T03:08:30;81.13;;;42.40;;
20118;SDS011;10220;42.716;23.306;2023-04-21T03:10:56;8.10;;;5.78;;
20118;SDS011;10220;42.716;23.306;2023-04-21T03:13:21;28.48;;;14.18;;
20118;SDS011;10220;42.716;23.306;2023-04-21T03:15:48;45.97;;;24.17;;
20118;SDS011;10220;42.716;23.306;2023-04-21T03:18:13;112.47;;;52.58;;
20118;SDS011;10220;42.716;23.306;2023-04-21T03:20:39;57.67;;;29.35;;
20118;SDS011;10220;42.716;23.306;2023-04-21T03:23:05;37.10;;;15.75;;
20118;SDS011;10220;42.716;23.306;2023-04-21T03:25:30;26.27;;;13.80;;
20118;SDS011;10220;42.716;23.306;2023-04-21T03:27:56;44.42;;;22.33;;
20118;SDS011;10220;42.716;23.306;2023-04-21T03:30:22;27.45;;;14.18;;
20118;SDS011;10220;42.716;23.306;2023-04-21T03:32:49;43.00;;;20.05;;
20118;SDS011;10220;42.716;23.306;2023-04-21T03:35:15;46.78;;;25.20;;
20118;SDS011;10220;42.716;23.306;2023-04-21T03:37:40;24.35;;;13.48;;
20118;SDS011;10220;42.716;23.306;2023-04-21T03:40:06;23.25;;;11.82;;
20118;SDS011;10220;42.716;23.306;2023-04-21T03:42:35;23.35;;;10.70;;
20118;SDS011;10220;42.716;23.306;2023-04-21T03:45:01;21.98;;;11.30;;
20118;SDS011;10220;42.716;23.306;2023-04-21T03:47:27;32.17;;;16.35;;
20118;SDS011;10220;42.716;23.306;2023-04-21T03:49:53;44.80;;;22.17;;
20118;SDS011;10220;42.716;23.306;2023-04-21T03:52:18;42.60;;;21.25;;
20118;SDS011;10220;42.716;23.306;2023-04-21T03:54:44;41.90;;;23.58;;
20118;SDS011;10220;42.716;23.306;2023-04-21T03:57:09;28.50;;;14.25;;
20118;SDS011;10220;42.716;23.306;2023-04-21T03:59:35;10.93;;;6.00;;
20118;SDS011;10220;42.716;23.306;2023-04-21T04:02:00;31.90;;;13.63;;
20118;SDS011;10220;42.716;23.306;2023-04-21T04:04:25;68.90;;;30.73;;
20118;SDS011;10220;42.716;23.306;2023-04-21T04:06:51;34.03;;;18.58;;
20118;SDS011;10220;42.716;23.306;2023-04-21T04:09:16;26.15;;;15.85;;
20118;SDS011;10220;42.716;23.306;2023-04-21T04:11:42;12.40;;;7.93;;
20118;SDS011;10220;42.716;23.306;2023-04-21T04:14:07;15.05;;;7.70;;
20118;SDS011;10220;42.716;23.306;2023-04-21T04:16:33;14.07;;;8.75;;
20118;SDS011;10220;42.716;23.306;2023-04-21T04:18:59;11.85;;;5.70;;
20118;SDS011;10220;42.716;23.306;2023-04-21T04:21:25;49.25;;;23.98;;
20118;SDS011;10220;42.716;23.306;2023-04-21T04:23:51;32.10;;;14.68;;
20118;SDS011;10220;42.716;23.306;2023-04-21T04:26:17;17.30;;;8.05;;
20118;SDS011;10220;42.716;23.306;2023-04-21T04:28:43;16.25;;;8.52;;
20118;SDS011;10220;42.716;23.306;2023-04-21T04:31:08;13.07;;;8.77;;
20118;SDS011;10220;42.716;23.306;2023-04-21T04:33:34;7.45;;;4.15;;
20118;SDS011;10220;42.716;23.306;2023-04-21T04:36:00;30.27;;;15.60;;
20118;SDS011;10220;42.716;23.306;2023-04-21T04:38:25;20.42;;;12.38;;
20118;SDS011;10220;42.716;23.306;2023-04-21T04:40:55;22.13;;;8.77;;
20118;SDS011;10220;42.716;23.306;2023-04-21T04:43:26;21.52;;;11.38;;
20118;SDS011;10220;42.716;23.306;2023-04-21T04:45:51;15.38;;;9.32;;
20118;SDS011;10220;42.716;23.306;2023-04-21T04:48:17;21.55;;;11.50;;
20118;SDS011;10220;42.716;23.306;2023-04-21T04:50:42;30.52;;;10.43;;
20118;SDS011;10220;42.716;23.306;2023-04-21T04:53:08;17.55;;;8.45;;
20118;SDS011;10220;42.716;23.306;2023-04-21T04:55:34;11.13;;;7.75;;
20118;SDS011;10220;42.716;23.306;2023-04-21T04:57:59;14.00;;;8.65;;
20118;SDS011;10220;42.716;23.306;2023-04-21T05:00:25;8.88;;;5.97;;
20118;SDS011;10220;42.716;23.306;2023-04-21T05:02:52;9.05;;;5.85;;
20118;SDS011;10220;42.716;23.306;2023-04-21T05:05:18;10.68;;;6.07;;
20118;SDS011;10220;42.716;23.306;2023-04-21T05:07:44;11.30;;;6.43;;
20118;SDS011;10220;42.716;23.306;2023-04-21T05:10:09;11.77;;;5.63;;
20118;SDS011;10220;42.716;23.306;2023-04-21T05:12:38;9.32;;;5.45;;
20118;SDS011;10220;42.716;23.306;2023-04-21T05:15:04;10.15;;;4.95;;
20118;SDS011;10220;42.716;23.306;2023-04-21T05:17:31;8.93;;;6.00;;
20118;SDS011;10220;42.716;23.306;2023-04-21T05:19:57;8.35;;;5.95;;
20118;SDS011;10220;42.716;23.306;2023-04-21T05:22:22;10.57;;;6.35;;
20118;SDS011;10220;42.716;23.306;2023-04-21T05:24:48;8.00;;;5.45;;
20118;SDS011;10220;42.716;23.306;2023-04-21T05:27:13;13.98;;;6.60;;
20118;SDS011;10220;42.716;23.306;2023-04-21T05:29:39;11.45;;;5.95;;
20118;SDS011;10220;42.716;23.306;2023-04-21T05:32:04;6.45;;;4.45;;
20118;SDS011;10220;42.716;23.306;2023-04-21T05:34:30;7.63;;;4.38;;
20118;SDS011;10220;42.716;23.306;2023-04-21T05:36:56;6.40;;;4.15;;
20118;SDS011;10220;42.716;23.306;2023-04-21T05:39:21;13.60;;;5.35;;
20118;SDS011;10220;42.716;23.306;2023-04-21T05:41:47;5.35;;;3.83;;
20118;SDS011;10220;42.716;23.306;2023-04-21T05:44:12;5.50;;;4.47;;
20118;SDS011;10220;42.716;23.306;2023-04-21T05:46:40;7.32;;;5.25;;
20118;SDS011;10220;42.716;23.306;2023-04-21T05:49:05;7.90;;;4.82;;
20118;SDS011;10220;42.716;23.306;2023-04-21T05:51:30;5.38;;;4.38;;
20118;SDS011;10220;42.716;23.306;2023-04-21T05:53:56;8.15;;;4.88;;
20118;SDS011;10220;42.716;23.306;2023-04-21T05:56:21;5.93;;;4.43;;
20118;SDS011;10220;42.716;23.306;2023-04-21T05:58:47;8.48;;;4.35;;
20118;SDS011;10220;42.716;23.306;2023-04-21T06:01:12;7.20;;;4.45;;
20118;SDS011;10220;42.716;23.306;2023-04-21T06:03:37;6.53;;;4.20;;
20118;SDS011;10220;42.716;23.306;2023-04-21T06:06:03;5.97;;;3.95;;
20118;SDS011;10220;42.716;23.306;2023-04-21T06:08:30;8.00;;;4.68;;
20118;SDS011;10220;42.716;23.306;2023-04-21T06:10:56;5.72;;;3.60;;
20118;SDS011;10220;42.716;23.306;2023-04-21T06:13:21;7.25;;;4.22;;
20118;SDS011;10220;42.716;23.306;2023-04-21T06:15:47;6.65;;;4.28;;
20118;SDS011;10220;42.716;23.306;2023-04-21T06:18:12;7.82;;;3.60;;
20118;SDS011;10220;42.716;23.306;2023-04-21T06:20:38;6.75;;;3.60;;
20118;SDS011;10220;42.716;23.306;2023-04-21T06:23:05;7.03;;;4.43;;
20118;SDS011;10220;42.716;23.306;2023-04-21T06:25:30;4.25;;;3.55;;
20118;SDS011;10220;42.716;23.306;2023-04-21T06:27:55;7.88;;;3.72;;
20118;SDS011;10220;42.716;23.306;2023-04-21T06:30:21;6.18;;;3.67;;
20118;SDS011;10220;42.716;23.306;2023-04-21T06:32:46;6.15;;;3.78;;
20118;SDS011;10220;42.716;23.306;2023-04-21T06:35:12;6.57;;;3.78;;
20118;SDS011;10220;42.716;23.306;2023-04-21T06:37:39;8.98;;;4.00;;
20118;SDS011;10220;42.716;23.306;2023-04-21T06:40:05;6.05;;;4.30;;
20118;SDS011;10220;42.716;23.306;2023-04-21T06:42:31;6.00;;;4.15;;
20118;SDS011;10220;42.716;23.306;2023-04-21T06:44:57;6.32;;;3.80;;
20118;SDS011;10220;42.716;23.306;2023-04-21T06:47:22;3.65;;;3.20;;
20118;SDS011;10220;42.716;23.306;2023-04-21T06:49:48;4.35;;;3.70;;
20118;SDS011;10220;42.716;23.306;2023-04-21T06:52:13;4.82;;;3.95;;
20118;SDS011;10220;42.716;23.306;2023-04-21T06:54:38;8.85;;;3.85;;
20118;SDS011;10220;42.716;23.306;2023-04-21T06:57:04;6.40;;;3.58;;
20118;SDS011;10220;42.716;23.306;2023-04-21T06:59:30;5.25;;;3.65;;
20118;SDS011;10220;42.716;23.306;2023-04-21T07:01:56;5.13;;;3.67;;
20118;SDS011;10220;42.716;23.306;2023-04-21T07:04:21;5.50;;;3.97;;
20118;SDS011;10220;42.716;23.306;2023-04-21T07:06:47;5.35;;;3.72;;
20118;SDS011;10220;42.716;23.306;2023-04-21T07:09:13;9.25;;;3.65;;
20118;SDS011;10220;42.716;23.306;2023-04-21T07:11:38;3.70;;;2.85;;
20118;SDS011;10220;42.716;23.306;2023-04-21T07:14:04;7.03;;;3.88;;
20118;SDS011;10220;42.716;23.306;2023-04-21T07:16:30;5.55;;;3.70;;
20118;SDS011;10220;42.716;23.306;2023-04-21T07:18:56;4.85;;;3.65;;
20118;SDS011;10220;42.716;23.306;2023-04-21T07:21:21;5.20;;;3.58;;
20118;SDS011;10220;42.716;23.306;2023-04-21T07:23:47;5.18;;;3.72;;
20118;SDS011;10220;42.716;23.306;2023-04-21T07:26:12;10.82;;;4.40;;
20118;SDS011;10220;42.716;23.306;2023-04-21T07:28:38;7.82;;;3.45;;
20118;SDS011;10220;42.716;23.306;2023-04-21T07:31:05;5.53;;;3.38;;
20118;SDS011;10220;42.716;23.306;2023-04-21T07:33:30;7.22;;;4.38;;
20118;SDS011;10220;42.716;23.306;2023-04-21T07:35:56;5.78;;;3.47;;
20118;SDS011;10220;42.716;23.306;2023-04-21T07:38:22;6.95;;;3.20;;
20118;SDS011;10220;42.716;23.306;2023-04-21T07:40:47;4.00;;;3.10;;
20118;SDS011;10220;42.716;23.306;2023-04-21T07:43:20;7.07;;;3.28;;
20118;SDS011;10220;42.716;23.306;2023-04-21T07:46:30;4.35;;;3.13;;
20118;SDS011;10220;42.716;23.306;2023-04-21T07:48:56;4.93;;;3.08;;
20118;SDS011;10220;42.716;23.306;2023-04-21T07:51:22;5.55;;;3.33;;
20118;SDS011;10220;42.716;23.306;2023-04-21T07:53:48;7.45;;;3.88;;
20118;SDS011;10220;42.716;23.306;2023-04-21T07:56:13;10.75;;;3.53;;
20118;SDS011;10220;42.716;23.306;2023-04-21T07:58:39;5.50;;;3.20;;
20118;SDS011;10220;42.716;23.306;2023-04-21T08:01:05;4.78;;;3.22;;
20118;SDS011;10220;42.716;23.306;2023-04-21T08:03:30;6.10;;;3.03;;
20118;SDS011;10220;42.716;23.306;2023-04-21T08:05:56;5.25;;;3.67;;
20118;SDS011;10220;42.716;23.306;2023-04-21T08:08:21;5.35;;;4.03;;
20118;SDS011;10220;42.716;23.306;2023-04-21T08:10:47;8.65;;;4.40;;
20118;SDS011;10220;42.716;23.306;2023-04-21T08:13:12;6.18;;;3.97;;
20118;SDS011;10220;42.716;23.306;2023-04-21T08:15:39;5.28;;;3.03;;
20118;SDS011;10220;42.716;23.306;2023-04-21T08:18:05;5.13;;;3.20;;
20118;SDS011;10220;42.716;23.306;2023-04-21T08:20:30;3.33;;;2.88;;
20118;SDS011;10220;42.716;23.306;2023-04-21T08:22:56;8.25;;;5.28;;
20118;SDS011;10220;42.716;23.306;2023-04-21T08:25:21;5.57;;;4.05;;
20118;SDS011;10220;42.716;23.306;2023-04-21T08:27:47;5.30;;;3.08;;
20118;SDS011;10220;42.716;23.306;2023-04-21T08:30:12;2.45;;;2.13;;
20118;SDS011;10220;42.716;23.306;2023-04-21T08:32:38;7.40;;;2.97;;
20118;SDS011;10220;42.716;23.306;2023-04-21T08:35:03;4.38;;;2.72;;
20118;SDS011;10220;42.716;23.306;2023-04-21T08:37:29;5.72;;;2.35;;
20118;SDS011;10220;42.716;23.306;2023-04-21T08:39:55;4.80;;;2.85;;
20118;SDS011;10220;42.716;23.306;2023-04-21T08:42:20;4.65;;;2.72;;
20118;SDS011;10220;42.716;23.306;2023-04-21T08:44:46;6.47;;;3.58;;
20118;SDS011;10220;42.716;23.306;2023-04-21T08:47:12;5.55;;;3.50;;
20118;SDS011;10220;42.716;23.306;2023-04-21T08:49:47;3.30;;;2.50;;
20118;SDS011;10220;42.716;23.306;2023-04-21T08:52:15;3.22;;;2.85;;
20118;SDS011;10220;42.716;23.306;2023-04-21T08:54:40;4.72;;;2.85;;
20118;SDS011;10220;42.716;23.306;2023-04-21T08:57:06;7.32;;;2.80;;
20118;SDS011;10220;42.716;23.306;2023-04-21T08:59:32;3.58;;;2.72;;
20118;SDS011;10220;42.716;23.306;2023-04-21T09:02:07;4.75;;;2.67;;
20118;SDS011;10220;42.716;23.306;2023-04-21T09:04:34;3.53;;;2.47;;
20118;SDS011;10220;42.716;23.306;2023-04-21T09:07:02;8.27;;;4.90;;
20118;SDS011;10220;42.716;23.306;2023-04-21T09:09:27;6.15;;;3.58;;
20118;SDS011;10220;42.716;23.306;2023-04-21T09:11:53;6.82;;;3.15;;
20118;SDS011;10220;42.716;23.306;2023-04-21T09:14:21;3.03;;;2.60;;
20118;SDS011;10220;42.716;23.306;2023-04-21T09:16:47;5.03;;;3.13;;
20118;SDS011;10220;42.716;23.306;2023-04-21T09:19:27;5.10;;;3.25;;
20118;SDS011;10220;42.716;23.306;2023-04-21T09:21:53;3.35;;;2.30;;
20118;SDS011;10220;42.716;23.306;2023-04-21T09:24:19;5.82;;;2.50;;
20118;SDS011;10220;42.716;23.306;2023-04-21T09:26:48;3.10;;;1.90;;
20118;SDS011;10220;42.716;23.306;2023-04-21T09:29:15;8.25;;;2.53;;
20118;SDS011;10220;42.716;23.306;2023-04-21T09:31:42;4.20;;;2.50;;
20118;SDS011;10220;42.716;23.306;2023-04-21T09:34:19;4.35;;;2.63;;
20118;SDS011;10220;42.716;23.306;2023-04-21T09:36:59;4.50;;;2.83;;
20118;SDS011;10220;42.716;23.306;2023-04-21T09:39:29;5.00;;;2.92;;
20118;SDS011;10220;42.716;23.306;2023-04-21T09:41:56;3.92;;;2.40;;
20118;SDS011;10220;42.716;23.306;2023-04-21T09:44:23;3.13;;;2.58;;
20118;SDS011;10220;42.716;23.306;2023-04-21T09:47:01;4.93;;;2.45;;
20118;SDS011;10220;42.716;23.306;2023-04-21T09:49:29;3.17;;;2.63;;
20118;SDS011;10220;42.716;23.306;2023-04-21T09:51:58;5.43;;;2.35;;
20118;SDS011;10220;42.716;23.306;2023-04-21T09:54:34;4.10;;;3.00;;
20118;SDS011;10220;42.716;23.306;2023-04-21T09:57:03;4.03;;;2.55;;
20118;SDS011;10220;42.716;23.306;2023-04-21T09:59:32;2.88;;;2.40;;
20118;SDS011;10220;42.716;23.306;2023-04-21T10:01:59;7.63;;;2.40;;
20118;SDS011;10220;42.716;23.306;2023-04-21T10:04:28;5.40;;;3.83;;
20118;SDS011;10220;42.716;23.306;2023-04-21T10:06:55;5.63;;;4.45;;
20118;SDS011;10220;42.716;23.306;2023-04-21T10:09:22;3.40;;;3.10;;
20118;SDS011;10220;42.716;23.306;2023-04-21T10:11:51;2.97;;;2.42;;
20118;SDS011;10220;42.716;23.306;2023-04-21T10:14:19;6.90;;;4.47;;
20118;SDS011;10220;42.716;23.306;2023-04-21T10:16:54;6.00;;;3.88;;
20118;SDS011;10220;42.716;23.306;2023-04-21T10:19:24;4.95;;;2.70;;
20118;SDS011;10220;42.716;23.306;2023-04-21T10:21:51;3.90;;;2.38;;
20118;SDS011;10220;42.716;23.306;2023-04-21T10:24:21;4.88;;;3.28;;
20118;SDS011;10220;42.716;23.306;2023-04-21T10:26:46;4.97;;;3.25;;
20118;SDS011;10220;42.716;23.306;2023-04-21T10:29:14;4.75;;;2.75;;
20118;SDS011;10220;42.716;23.306;2023-04-21T10:39:27;4.43;;;2.47;;
20118;SDS011;10220;42.716;23.306;2023-04-21T10:44:43;3.17;;;2.40;;
20118;SDS011;10220;42.716;23.306;2023-04-21T10:47:26;3.13;;;2.22;;
20118;SDS011;10220;42.716;23.306;2023-04-21T10:49:57;4.60;;;2.15;;
20118;SDS011;10220;42.716;23.306;2023-04-21T10:52:32;3.35;;;2.92;;
20118;SDS011;10220;42.716;23.306;2023-04-21T10:57:23;10.32;;;6.30;;
20118;SDS011;10220;42.716;23.306;2023-04-21T10:59:49;28.98;;;16.50;;
20118;SDS011;10220;42.716;23.306;2023-04-21T11:02:15;27.13;;;14.63;;
20118;SDS011;10220;42.716;23.306;2023-04-21T11:04:43;4.40;;;2.60;;
20118;SDS011;10220;42.716;23.306;2023-04-21T11:09:45;9.15;;;5.30;;
20118;SDS011;10220;42.716;23.306;2023-04-21T11:12:13;8.25;;;5.18;;
20118;SDS011;10220;42.716;23.306;2023-04-21T11:14:40;12.63;;;6.55;;
20118;SDS011;10220;42.716;23.306;2023-04-21T11:17:11;11.20;;;8.65;;
20118;SDS011;10220;42.716;23.306;2023-04-21T11:19:38;9.60;;;5.97;;
20118;SDS011;10220;42.716;23.306;2023-04-21T11:22:04;8.95;;;4.88;;
20118;SDS011;10220;42.716;23.306;2023-04-21T11:24:30;19.55;;;10.88;;
20118;SDS011;10220;42.716;23.306;2023-04-21T11:26:56;7.05;;;3.05;;
20118;SDS011;10220;42.716;23.306;2023-04-21T11:29:25;6.40;;;4.63;;
20118;SDS011;10220;42.716;23.306;2023-04-21T11:31:50;6.43;;;2.95;;
20118;SDS011;10220;42.716;23.306;2023-04-21T11:34:19;7.57;;;4.55;;
20118;SDS011;10220;42.716;23.306;2023-04-21T11:36:46;8.65;;;5.20;;
20118;SDS011;10220;42.716;23.306;2023-04-21T11:39:13;4.35;;;2.50;;
20118;SDS011;10220;42.716;23.306;2023-04-21T11:41:41;3.55;;;2.67;;
20118;SDS011;10220;42.716;23.306;2023-04-21T11:44:11;6.95;;;4.28;;
20118;SDS011;10220;42.716;23.306;2023-04-21T11:46:43;4.68;;;3.00;;
20118;SDS011;10220;42.716;23.306;2023-04-21T11:49:10;8.07;;;3.63;;
20118;SDS011;10220;42.716;23.306;2023-04-21T11:51:37;3.92;;;2.00;;
20118;SDS011;10220;42.716;23.306;2023-04-21T11:54:05;10.77;;;5.88;;
20118;SDS011;10220;42.716;23.306;2023-04-21T11:56:35;8.05;;;3.03;;
20118;SDS011;10220;42.716;23.306;2023-04-21T12:01:43;5.10;;;3.20;;
20118;SDS011;10220;42.716;23.306;2023-04-21T12:04:22;5.03;;;3.17;;
20118;SDS011;10220;42.716;23.306;2023-04-21T12:07:01;4.63;;;3.22;;
20118;SDS011;10220;42.716;23.306;2023-04-21T12:09:27;5.10;;;3.10;;
20118;SDS011;10220;42.716;23.306;2023-04-21T12:11:54;4.68;;;2.30;;
20118;SDS011;10220;42.716;23.306;2023-04-21T12:14:23;12.50;;;6.88;;
20118;SDS011;10220;42.716;23.306;2023-04-21T12:16:51;3.15;;;2.42;;
20118;SDS011;10220;42.716;23.306;2023-04-21T12:22:10;7.72;;;3.55;;
20118;SDS011;10220;42.716;23.306;2023-04-21T12:24:36;8.40;;;5.03;;
20118;SDS011;10220;42.716;23.306;2023-04-21T12:27:03;6.40;;;3.55;;
20118;SDS011;10220;42.716;23.306;2023-04-21T12:29:32;6.25;;;4.65;;
20118;SDS011;10220;42.716;23.306;2023-04-21T12:32:02;11.60;;;7.22;;
20118;SDS011;10220;42.716;23.306;2023-04-21T12:34:28;3.65;;;2.65;;
20118;SDS011;10220;42.716;23.306;2023-04-21T12:36:54;8.07;;;3.25;;
20118;SDS011;10220;42.716;23.306;2023-04-21T12:39:19;20.27;;;10.98;;
20118;SDS011;10220;42.716;23.306;2023-04-21T12:41:46;6.65;;;3.72;;
20118;SDS011;10220;42.716;23.306;2023-04-21T12:44:12;9.73;;;3.60;;
20118;SDS011;10220;42.716;23.306;2023-04-21T12:46:38;5.50;;;3.00;;
20118;SDS011;10220;42.716;23.306;2023-04-21T12:49:04;5.05;;;3.85;;
20118;SDS011;10220;42.716;23.306;2023-04-21T12:51:31;30.02;;;17.98;;
20118;SDS011;10220;42.716;23.306;2023-04-21T12:53:57;5.10;;;3.60;;
20118;SDS011;10220;42.716;23.306;2023-04-21T12:56:22;16.10;;;9.95;;
20118;SDS011;10220;42.716;23.306;2023-04-21T12:58:48;11.18;;;6.10;;
20118;SDS011;10220;42.716;23.306;2023-04-21T13:01:13;2.50;;;2.30;;
20118;SDS011;10220;42.716;23.306;2023-04-21T13:03:40;4.03;;;3.15;;
20118;SDS011;10220;42.716;23.306;2023-04-21T13:06:06;10.50;;;6.30;;
20118;SDS011;10220;42.716;23.306;2023-04-21T13:08:32;34.33;;;18.98;;
20118;SDS011;10220;42.716;23.306;2023-04-21T13:10:58;7.68;;;4.60;;
20118;SDS011;10220;42.716;23.306;2023-04-21T13:13:23;7.10;;;4.57;;
20118;SDS011;10220;42.716;23.306;2023-04-21T13:15:50;3.42;;;2.40;;
20118;SDS011;10220;42.716;23.306;2023-04-21T13:18:15;15.57;;;8.65;;
20118;SDS011;10220;42.716;23.306;2023-04-21T13:20:41;9.95;;;5.75;;
20118;SDS011;10220;42.716;23.306;2023-04-21T13:23:06;13.00;;;6.65;;
20118;SDS011;10220;42.716;23.306;2023-04-21T13:25:33;11.60;;;6.20;;
20118;SDS011;10220;42.716;23.306;2023-04-21T13:27:58;13.27;;;7.53;;
20118;SDS011;10220;42.716;23.306;2023-04-21T13:30:24;4.40;;;3.17;;
20118;SDS011;10220;42.716;23.306;2023-04-21T13:32:50;16.23;;;8.82;;
20118;SDS011;10220;42.716;23.306;2023-04-21T13:35:15;4.35;;;3.25;;
20118;SDS011;10220;42.716;23.306;2023-04-21T13:37:41;34.08;;;20.25;;
20118;SDS011;10220;42.716;23.306;2023-04-21T13:40:07;8.95;;;6.10;;
20118;SDS011;10220;42.716;23.306;2023-04-21T13:42:37;57.58;;;34.85;;
20118;SDS011;10220;42.716;23.306;2023-04-21T13:45:03;61.80;;;34.20;;
20118;SDS011;10220;42.716;23.306;2023-04-21T13:47:30;4.47;;;3.30;;
20118;SDS011;10220;42.716;23.306;2023-04-21T13:49:56;5.13;;;2.50;;
20118;SDS011;10220;42.716;23.306;2023-04-21T13:52:22;4.35;;;2.90;;
20118;SDS011;10220;42.716;23.306;2023-04-21T13:54:47;7.95;;;2.60;;
20118;SDS011;10220;42.716;23.306;2023-04-21T13:57:13;2.45;;;2.20;;
20118;SDS011;10220;42.716;23.306;2023-04-21T13:59:38;4.85;;;2.78;;
20118;SDS011;10220;42.716;23.306;2023-04-21T14:02:05;5.10;;;2.97;;
20118;SDS011;10220;42.716;23.306;2023-04-21T14:04:31;4.30;;;2.95;;
20118;SDS011;10220;42.716;23.306;2023-04-21T14:06:57;5.70;;;3.05;;
20118;SDS011;10220;42.716;23.306;2023-04-21T14:09:22;4.28;;;2.10;;
20118;SDS011;10220;42.716;23.306;2023-04-21T14:11:48;4.75;;;3.10;;
20118;SDS011;10220;42.716;23.306;2023-04-21T14:14:13;6.38;;;2.85;;
20118;SDS011;10220;42.716;23.306;2023-04-21T14:16:38;2.92;;;2.58;;
20118;SDS011;10220;42.716;23.306;2023-04-21T14:19:04;3.42;;;2.53;;
20118;SDS011;10220;42.716;23.306;2023-04-21T14:21:30;2.90;;;2.60;;
20118;SDS011;10220;42.716;23.306;2023-04-21T14:23:56;2.80;;;2.42;;
20118;SDS011;10220;42.716;23.306;2023-04-21T14:26:21;7.78;;;2.42;;
20118;SDS011;10220;42.716;23.306;2023-04-21T14:28:47;7.47;;;2.80;;
20118;SDS011;10220;42.716;23.306;2023-04-21T14:31:13;2.85;;;2.25;;
20118;SDS011;10220;42.716;23.306;2023-04-21T14:33:42;5.00;;;2.83;;
20118;SDS011;10220;42.716;23.306;2023-04-21T14:36:07;4.32;;;2.40;;
20118;SDS011;10220;42.716;23.306;2023-04-21T14:38:34;4.95;;;2.47;;
20118;SDS011;10220;42.716;23.306;2023-04-21T14:40:59;4.80;;;3.17;;
20118;SDS011;10220;42.716;23.306;2023-04-21T14:43:25;4.15;;;2.88;;
20118;SDS011;10220;42.716;23.306;2023-04-21T14:45:51;5.20;;;2.70;;